sensor_id;sensor_type;location;lat;lon;timestamp;P1;durP1;ratioP1;P2;durP2;ratioP2
21084;SDS011;72320;50.082;20.000;2023-10-19T00:00:47;13.07;;;9.55;;
21084;SDS011;72320;50.082;20.000;2023-10-19T00:02:21;13.93;;;8.88;;
21084;SDS011;72320;50.082;20.000;2023-10-19T00:03:55;13.60;;;9.30;;
21084;SDS011;72320;50.082;20.000;2023-10-19T00:05:28;17.63;;;9.40;;
21084;SDS011;72320;50.082;20.000;2023-10-19T00:07:02;10.73;;;8.13;;
21084;SDS011;72320;50.082;20.000;2023-10-19T00:08:36;13.18;;;7.95;;
21084;SDS011;72320;50.082;20.000;2023-10-19T00:10:09;17.33;;;10.13;;
21084;SDS011;72320;50.082;20.000;2023-10-19T00:11:42;20.00;;;9.73;;
21084;SDS011;72320;50.082;20.000;2023-10-19T00:13:15;15.70;;;9.52;;
21084;SDS011;72320;50.082;20.000;2023-10-19T00:14:49;18.98;;;10.23;;
21084;SDS011;72320;50.082;20.000;2023-10-19T00:16:22;13.18;;;9.73;;
21084;SDS011;72320;50.082;20.000;2023-10-19T00:17:56;16.73;;;9.95;;
21084;SDS011;72320;50.082;20.000;2023-10-19T00:19:33;15.68;;;9.40;;
21084;SDS011;72320;50.082;20.000;2023-10-19T00:21:06;21.02;;;9.75;;
21084;SDS011;72320;50.082;20.000;2023-10-19T00:22:40;13.15;;;7.35;;
21084;SDS011;72320;50.082;20.000;2023-10-19T00:24:14;14.15;;;9.10;;
21084;SDS011;72320;50.082;20.000;2023-10-19T00:25:47;16.85;;;8.70;;
21084;SDS011;72320;50.082;20.000;2023-10-19T00:27:21;15.60;;;9.50;;
21084;SDS011;72320;50.082;20.000;2023-10-19T00:28:54;15.73;;;8.73;;
21084;SDS011;72320;50.082;20.000;2023-10-19T00:30:28;12.88;;;7.80;;
21084;SDS011;72320;50.082;20.000;2023-10-19T00:32:02;12.57;;;7.30;;
21084;SDS011;72320;50.082;20.000;2023-10-19T00:33:44;8.70;;;6.22;;
21084;SDS011;72320;50.082;20.000;2023-10-19T00:35:17;10.45;;;8.75;;
21084;SDS011;72320;50.082;20.000;2023-10-19T00:36:50;15.82;;;7.53;;
21084;SDS011;72320;50.082;20.000;2023-10-19T00:38:24;18.98;;;8.93;;
21084;SDS011;72320;50.082;20.000;2023-10-19T00:39:58;13.68;;;9.20;;
21084;SDS011;72320;50.082;20.000;2023-10-19T00:41:31;9.50;;;7.88;;
21084;SDS011;72320;50.082;20.000;2023-10-19T00:43:05;21.02;;;9.90;;
21084;SDS011;72320;50.082;20.000;2023-10-19T00:44:38;14.13;;;8.45;;
21084;SDS011;72320;50.082;20.000;2023-10-19T00:46:12;9.80;;;7.63;;
21084;SDS011;72320;50.082;20.000;2023-10-19T00:47:48;15.75;;;8.80;;
21084;SDS011;72320;50.082;20.000;2023-10-19T00:49:25;22.95;;;10.35;;
21084;SDS011;72320;50.082;20.000;2023-10-19T00:50:58;12.30;;;8.73;;
21084;SDS011;72320;50.082;20.000;2023-10-19T00:52:32;12.98;;;8.18;;
21084;SDS011;72320;50.082;20.000;2023-10-19T00:54:14;11.80;;;7.53;;
21084;SDS011;72320;50.082;20.000;2023-10-19T00:55:53;16.98;;;10.05;;
21084;SDS011;72320;50.082;20.000;2023-10-19T00:57:26;13.70;;;10.77;;
21084;SDS011;72320;50.082;20.000;2023-10-19T00:59:00;11.60;;;8.85;;
21084;SDS011;72320;50.082;20.000;2023-10-19T01:00:34;10.20;;;9.23;;
21084;SDS011;72320;50.082;20.000;2023-10-19T01:02:09;17.23;;;10.52;;
21084;SDS011;72320;50.082;20.000;2023-10-19T01:03:42;12.73;;;7.72;;
21084;SDS011;72320;50.082;20.000;2023-10-19T01:05:16;18.00;;;10.00;;
21084;SDS011;72320;50.082;20.000;2023-10-19T01:06:49;9.80;;;6.68;;
21084;SDS011;72320;50.082;20.000;2023-10-19T01:08:23;11.85;;;8.73;;
21084;SDS011;72320;50.082;20.000;2023-10-19T01:09:57;14.02;;;9.00;;
21084;SDS011;72320;50.082;20.000;2023-10-19T01:11:33;10.30;;;8.23;;
21084;SDS011;72320;50.082;20.000;2023-10-19T01:13:07;16.67;;;9.45;;
21084;SDS011;72320;50.082;20.000;2023-10-19T01:14:40;13.05;;;9.02;;
21084;SDS011;72320;50.082;20.000;2023-10-19T01:16:17;10.45;;;8.20;;
21084;SDS011;72320;50.082;20.000;2023-10-19T01:17:51;13.27;;;8.77;;
21084;SDS011;72320;50.082;20.000;2023-10-19T01:19:25;12.85;;;8.90;;
21084;SDS011;72320;50.082;20.000;2023-10-19T01:20:58;10.38;;;6.95;;
21084;SDS011;72320;50.082;20.000;2023-10-19T01:22:32;12.48;;;7.82;;
21084;SDS011;72320;50.082;20.000;2023-10-19T01:24:06;11.23;;;7.63;;
21084;SDS011;72320;50.082;20.000;2023-10-19T01:25:47;16.95;;;6.82;;
21084;SDS011;72320;50.082;20.000;2023-10-19T01:27:25;7.25;;;6.47;;
21084;SDS011;72320;50.082;20.000;2023-10-19T01:28:58;13.60;;;7.65;;
21084;SDS011;72320;50.082;20.000;2023-10-19T01:30:31;16.48;;;9.23;;
21084;SDS011;72320;50.082;20.000;2023-10-19T01:32:06;13.50;;;9.20;;
21084;SDS011;72320;50.082;20.000;2023-10-19T01:33:39;11.43;;;9.60;;
21084;SDS011;72320;50.082;20.000;2023-10-19T01:35:13;18.60;;;6.78;;
21084;SDS011;72320;50.082;20.000;2023-10-19T01:36:46;10.00;;;7.22;;
21084;SDS011;72320;50.082;20.000;2023-10-19T01:38:20;15.75;;;8.90;;
21084;SDS011;72320;50.082;20.000;2023-10-19T01:39:53;11.32;;;8.90;;
21084;SDS011;72320;50.082;20.000;2023-10-19T01:41:27;15.18;;;8.68;;
21084;SDS011;72320;50.082;20.000;2023-10-19T01:43:01;16.45;;;9.65;;
21084;SDS011;72320;50.082;20.000;2023-10-19T01:44:34;14.10;;;7.35;;
21084;SDS011;72320;50.082;20.000;2023-10-19T01:46:08;16.42;;;8.80;;
21084;SDS011;72320;50.082;20.000;2023-10-19T01:47:42;15.65;;;8.57;;
21084;SDS011;72320;50.082;20.000;2023-10-19T01:49:15;11.60;;;8.40;;
21084;SDS011;72320;50.082;20.000;2023-10-19T01:50:49;11.73;;;8.57;;
21084;SDS011;72320;50.082;20.000;2023-10-19T01:52:23;15.82;;;8.32;;
21084;SDS011;72320;50.082;20.000;2023-10-19T01:53:59;21.85;;;9.25;;
21084;SDS011;72320;50.082;20.000;2023-10-19T01:55:36;9.75;;;8.07;;
21084;SDS011;72320;50.082;20.000;2023-10-19T01:57:10;12.18;;;7.25;;
21084;SDS011;72320;50.082;20.000;2023-10-19T01:58:44;24.25;;;8.90;;
21084;SDS011;72320;50.082;20.000;2023-10-19T02:00:19;17.42;;;9.30;;
21084;SDS011;72320;50.082;20.000;2023-10-19T02:01:56;16.17;;;8.15;;
21084;SDS011;72320;50.082;20.000;2023-10-19T02:03:29;13.65;;;6.63;;
21084;SDS011;72320;50.082;20.000;2023-10-19T02:05:02;18.15;;;9.30;;
21084;SDS011;72320;50.082;20.000;2023-10-19T02:06:39;12.18;;;7.63;;
21084;SDS011;72320;50.082;20.000;2023-10-19T02:08:12;13.05;;;6.93;;
21084;SDS011;72320;50.082;20.000;2023-10-19T02:09:45;18.08;;;8.73;;
21084;SDS011;72320;50.082;20.000;2023-10-19T02:11:19;12.00;;;8.70;;
21084;SDS011;72320;50.082;20.000;2023-10-19T02:12:53;12.85;;;8.93;;
21084;SDS011;72320;50.082;20.000;2023-10-19T02:14:29;12.68;;;8.50;;
21084;SDS011;72320;50.082;20.000;2023-10-19T02:16:03;9.90;;;7.63;;
21084;SDS011;72320;50.082;20.000;2023-10-19T02:17:37;9.45;;;8.55;;
21084;SDS011;72320;50.082;20.000;2023-10-19T02:19:13;15.02;;;7.30;;
21084;SDS011;72320;50.082;20.000;2023-10-19T02:20:46;17.65;;;9.27;;
21084;SDS011;72320;50.082;20.000;2023-10-19T02:22:20;16.92;;;7.50;;
21084;SDS011;72320;50.082;20.000;2023-10-19T02:23:53;13.07;;;8.77;;
21084;SDS011;72320;50.082;20.000;2023-10-19T02:25:26;11.25;;;7.50;;
21084;SDS011;72320;50.082;20.000;2023-10-19T02:26:59;15.60;;;9.18;;
21084;SDS011;72320;50.082;20.000;2023-10-19T02:28:33;8.73;;;7.43;;
21084;SDS011;72320;50.082;20.000;2023-10-19T02:30:06;14.32;;;7.82;;
21084;SDS011;72320;50.082;20.000;2023-10-19T02:31:40;11.93;;;8.18;;
21084;SDS011;72320;50.082;20.000;2023-10-19T02:33:14;13.23;;;7.00;;
21084;SDS011;72320;50.082;20.000;2023-10-19T02:34:47;11.90;;;7.00;;
21084;SDS011;72320;50.082;20.000;2023-10-19T02:36:21;13.07;;;8.13;;
21084;SDS011;72320;50.082;20.000;2023-10-19T02:37:54;11.90;;;7.47;;
21084;SDS011;72320;50.082;20.000;2023-10-19T02:39:27;14.13;;;7.65;;
21084;SDS011;72320;50.082;20.000;2023-10-19T02:41:00;20.92;;;9.45;;
21084;SDS011;72320;50.082;20.000;2023-10-19T02:42:34;10.25;;;6.38;;
21084;SDS011;72320;50.082;20.000;2023-10-19T02:44:08;16.17;;;8.32;;
21084;SDS011;72320;50.082;20.000;2023-10-19T02:45:46;7.40;;;6.45;;
21084;SDS011;72320;50.082;20.000;2023-10-19T02:47:22;10.07;;;7.45;;
21084;SDS011;72320;50.082;20.000;2023-10-19T02:48:55;13.18;;;6.50;;
21084;SDS011;72320;50.082;20.000;2023-10-19T02:50:31;15.30;;;7.70;;
21084;SDS011;72320;50.082;20.000;2023-10-19T02:52:04;13.30;;;7.88;;
21084;SDS011;72320;50.082;20.000;2023-10-19T02:53:39;10.95;;;7.57;;
21084;SDS011;72320;50.082;20.000;2023-10-19T02:55:12;11.48;;;9.85;;
21084;SDS011;72320;50.082;20.000;2023-10-19T02:56:49;10.05;;;8.00;;
21084;SDS011;72320;50.082;20.000;2023-10-19T02:58:27;14.40;;;9.05;;
21084;SDS011;72320;50.082;20.000;2023-10-19T03:00:00;13.63;;;7.45;;
21084;SDS011;72320;50.082;20.000;2023-10-19T03:01:34;12.00;;;7.85;;
21084;SDS011;72320;50.082;20.000;2023-10-19T03:03:07;12.40;;;7.00;;
21084;SDS011;72320;50.082;20.000;2023-10-19T03:04:41;10.07;;;7.65;;
21084;SDS011;72320;50.082;20.000;2023-10-19T03:06:14;17.25;;;10.00;;
21084;SDS011;72320;50.082;20.000;2023-10-19T03:07:50;11.43;;;7.35;;
21084;SDS011;72320;50.082;20.000;2023-10-19T03:09:24;13.80;;;7.68;;
21084;SDS011;72320;50.082;20.000;2023-10-19T03:10:57;12.60;;;7.03;;
21084;SDS011;72320;50.082;20.000;2023-10-19T03:12:30;14.10;;;9.45;;
21084;SDS011;72320;50.082;20.000;2023-10-19T03:14:09;16.27;;;8.82;;
21084;SDS011;72320;50.082;20.000;2023-10-19T03:15:43;11.80;;;8.35;;
21084;SDS011;72320;50.082;20.000;2023-10-19T03:17:18;14.13;;;8.70;;
21084;SDS011;72320;50.082;20.000;2023-10-19T03:18:52;16.13;;;8.35;;
21084;SDS011;72320;50.082;20.000;2023-10-19T03:20:25;12.43;;;6.72;;
21084;SDS011;72320;50.082;20.000;2023-10-19T03:21:58;12.98;;;7.65;;
21084;SDS011;72320;50.082;20.000;2023-10-19T03:23:31;10.93;;;7.20;;
21084;SDS011;72320;50.082;20.000;2023-10-19T03:25:05;11.07;;;7.20;;
21084;SDS011;72320;50.082;20.000;2023-10-19T03:26:39;12.32;;;7.90;;
21084;SDS011;72320;50.082;20.000;2023-10-19T03:28:13;10.88;;;8.18;;
21084;SDS011;72320;50.082;20.000;2023-10-19T03:29:46;11.45;;;7.75;;
21084;SDS011;72320;50.082;20.000;2023-10-19T03:31:24;13.32;;;8.45;;
21084;SDS011;72320;50.082;20.000;2023-10-19T03:32:57;13.90;;;8.00;;
21084;SDS011;72320;50.082;20.000;2023-10-19T03:34:30;10.30;;;7.43;;
21084;SDS011;72320;50.082;20.000;2023-10-19T03:36:04;9.85;;;7.50;;
21084;SDS011;72320;50.082;20.000;2023-10-19T03:37:37;9.93;;;7.72;;
21084;SDS011;72320;50.082;20.000;2023-10-19T03:39:11;8.88;;;7.03;;
21084;SDS011;72320;50.082;20.000;2023-10-19T03:40:44;8.18;;;7.35;;
21084;SDS011;72320;50.082;20.000;2023-10-19T03:42:17;10.95;;;7.18;;
21084;SDS011;72320;50.082;20.000;2023-10-19T03:43:51;13.00;;;6.72;;
21084;SDS011;72320;50.082;20.000;2023-10-19T03:45:27;12.70;;;8.55;;
21084;SDS011;72320;50.082;20.000;2023-10-19T03:47:01;11.13;;;8.52;;
21084;SDS011;72320;50.082;20.000;2023-10-19T03:48:34;11.27;;;7.15;;
21084;SDS011;72320;50.082;20.000;2023-10-19T03:50:07;11.45;;;9.18;;
21084;SDS011;72320;50.082;20.000;2023-10-19T03:51:41;14.68;;;7.15;;
21084;SDS011;72320;50.082;20.000;2023-10-19T03:53:14;12.15;;;7.07;;
21084;SDS011;72320;50.082;20.000;2023-10-19T03:54:48;7.80;;;7.03;;
21084;SDS011;72320;50.082;20.000;2023-10-19T03:56:22;15.00;;;8.00;;
21084;SDS011;72320;50.082;20.000;2023-10-19T03:57:55;28.65;;;9.00;;
21084;SDS011;72320;50.082;20.000;2023-10-19T03:59:28;15.40;;;9.68;;
21084;SDS011;72320;50.082;20.000;2023-10-19T04:01:02;11.23;;;7.97;;
21084;SDS011;72320;50.082;20.000;2023-10-19T04:02:35;13.32;;;10.25;;
21084;SDS011;72320;50.082;20.000;2023-10-19T04:04:10;13.05;;;8.98;;
21084;SDS011;72320;50.082;20.000;2023-10-19T04:05:43;13.68;;;7.60;;
21084;SDS011;72320;50.082;20.000;2023-10-19T04:07:17;15.40;;;9.45;;
21084;SDS011;72320;50.082;20.000;2023-10-19T04:08:51;16.77;;;8.23;;
21084;SDS011;72320;50.082;20.000;2023-10-19T04:10:25;13.20;;;8.20;;
21084;SDS011;72320;50.082;20.000;2023-10-19T04:11:58;15.88;;;8.52;;
21084;SDS011;72320;50.082;20.000;2023-10-19T04:13:31;14.02;;;7.95;;
21084;SDS011;72320;50.082;20.000;2023-10-19T04:15:05;17.83;;;10.30;;
21084;SDS011;72320;50.082;20.000;2023-10-19T04:16:39;14.60;;;8.50;;
21084;SDS011;72320;50.082;20.000;2023-10-19T04:18:13;11.98;;;8.13;;
21084;SDS011;72320;50.082;20.000;2023-10-19T04:19:55;18.75;;;9.73;;
21084;SDS011;72320;50.082;20.000;2023-10-19T04:21:28;12.98;;;9.05;;
21084;SDS011;72320;50.082;20.000;2023-10-19T04:23:02;8.80;;;7.32;;
21084;SDS011;72320;50.082;20.000;2023-10-19T04:24:36;21.60;;;7.97;;
21084;SDS011;72320;50.082;20.000;2023-10-19T04:26:09;12.65;;;8.48;;
21084;SDS011;72320;50.082;20.000;2023-10-19T04:27:43;13.05;;;9.02;;
21084;SDS011;72320;50.082;20.000;2023-10-19T04:29:17;19.90;;;7.63;;
21084;SDS011;72320;50.082;20.000;2023-10-19T04:30:50;14.52;;;9.13;;
21084;SDS011;72320;50.082;20.000;2023-10-19T04:32:23;10.43;;;7.38;;
21084;SDS011;72320;50.082;20.000;2023-10-19T04:33:56;13.15;;;7.95;;
21084;SDS011;72320;50.082;20.000;2023-10-19T04:35:29;14.85;;;8.48;;
21084;SDS011;72320;50.082;20.000;2023-10-19T04:37:03;12.55;;;8.13;;
21084;SDS011;72320;50.082;20.000;2023-10-19T04:38:36;10.75;;;8.55;;
21084;SDS011;72320;50.082;20.000;2023-10-19T04:40:10;12.63;;;9.20;;
21084;SDS011;72320;50.082;20.000;2023-10-19T04:41:44;16.88;;;11.05;;
21084;SDS011;72320;50.082;20.000;2023-10-19T04:43:19;9.70;;;7.97;;
21084;SDS011;72320;50.082;20.000;2023-10-19T04:44:55;13.70;;;7.80;;
21084;SDS011;72320;50.082;20.000;2023-10-19T04:46:28;15.23;;;7.45;;
21084;SDS011;72320;50.082;20.000;2023-10-19T04:48:02;8.88;;;7.85;;
21084;SDS011;72320;50.082;20.000;2023-10-19T04:49:36;8.95;;;7.60;;
21084;SDS011;72320;50.082;20.000;2023-10-19T04:51:09;16.85;;;7.18;;
21084;SDS011;72320;50.082;20.000;2023-10-19T04:52:43;9.07;;;6.38;;
21084;SDS011;72320;50.082;20.000;2023-10-19T04:54:16;13.23;;;8.85;;
21084;SDS011;72320;50.082;20.000;2023-10-19T04:55:52;20.13;;;8.18;;
21084;SDS011;72320;50.082;20.000;2023-10-19T04:57:25;22.15;;;7.03;;
21084;SDS011;72320;50.082;20.000;2023-10-19T04:58:59;10.30;;;6.60;;
21084;SDS011;72320;50.082;20.000;2023-10-19T05:00:35;15.65;;;8.82;;
21084;SDS011;72320;50.082;20.000;2023-10-19T05:02:08;11.25;;;8.23;;
21084;SDS011;72320;50.082;20.000;2023-10-19T05:03:42;19.80;;;8.82;;
21084;SDS011;72320;50.082;20.000;2023-10-19T05:05:15;16.33;;;8.63;;
21084;SDS011;72320;50.082;20.000;2023-10-19T05:06:48;12.60;;;8.27;;
21084;SDS011;72320;50.082;20.000;2023-10-19T05:08:21;11.05;;;7.38;;
21084;SDS011;72320;50.082;20.000;2023-10-19T05:09:55;17.08;;;9.23;;
21084;SDS011;72320;50.082;20.000;2023-10-19T05:11:29;11.68;;;7.65;;
21084;SDS011;72320;50.082;20.000;2023-10-19T05:13:03;14.43;;;9.98;;
21084;SDS011;72320;50.082;20.000;2023-10-19T05:14:37;10.75;;;7.35;;
21084;SDS011;72320;50.082;20.000;2023-10-19T05:16:14;14.05;;;7.60;;
21084;SDS011;72320;50.082;20.000;2023-10-19T05:17:47;12.45;;;7.60;;
21084;SDS011;72320;50.082;20.000;2023-10-19T05:19:20;7.13;;;5.82;;
21084;SDS011;72320;50.082;20.000;2023-10-19T05:20:53;11.27;;;8.68;;
21084;SDS011;72320;50.082;20.000;2023-10-19T05:22:26;11.43;;;7.47;;
21084;SDS011;72320;50.082;20.000;2023-10-19T05:24:00;13.50;;;7.03;;
21084;SDS011;72320;50.082;20.000;2023-10-19T05:25:34;10.30;;;7.95;;
21084;SDS011;72320;50.082;20.000;2023-10-19T05:27:08;8.88;;;6.68;;
21084;SDS011;72320;50.082;20.000;2023-10-19T05:28:44;11.20;;;6.28;;
21084;SDS011;72320;50.082;20.000;2023-10-19T05:30:17;13.32;;;7.25;;
21084;SDS011;72320;50.082;20.000;2023-10-19T05:31:51;7.70;;;6.20;;
21084;SDS011;72320;50.082;20.000;2023-10-19T05:33:28;7.80;;;6.80;;
21084;SDS011;72320;50.082;20.000;2023-10-19T05:35:02;8.60;;;7.68;;
21084;SDS011;72320;50.082;20.000;2023-10-19T05:36:36;10.88;;;6.53;;
21084;SDS011;72320;50.082;20.000;2023-10-19T05:38:10;6.28;;;5.68;;
21084;SDS011;72320;50.082;20.000;2023-10-19T05:39:43;6.72;;;5.60;;
21084;SDS011;72320;50.082;20.000;2023-10-19T05:41:17;8.88;;;7.47;;
21084;SDS011;72320;50.082;20.000;2023-10-19T05:42:50;9.02;;;6.15;;
21084;SDS011;72320;50.082;20.000;2023-10-19T05:44:23;14.63;;;7.78;;
21084;SDS011;72320;50.082;20.000;2023-10-19T05:45:56;14.63;;;6.90;;
21084;SDS011;72320;50.082;20.000;2023-10-19T05:47:30;11.18;;;5.93;;
21084;SDS011;72320;50.082;20.000;2023-10-19T05:49:03;9.32;;;6.47;;
21084;SDS011;72320;50.082;20.000;2023-10-19T05:50:36;11.25;;;8.13;;
21084;SDS011;72320;50.082;20.000;2023-10-19T05:52:09;9.70;;;6.82;;
21084;SDS011;72320;50.082;20.000;2023-10-19T05:53:43;10.32;;;7.72;;
21084;SDS011;72320;50.082;20.000;2023-10-19T05:55:16;10.25;;;7.10;;
21084;SDS011;72320;50.082;20.000;2023-10-19T05:56:49;15.35;;;7.90;;
21084;SDS011;72320;50.082;20.000;2023-10-19T05:58:23;9.52;;;6.22;;
21084;SDS011;72320;50.082;20.000;2023-10-19T05:59:56;12.02;;;6.82;;
21084;SDS011;72320;50.082;20.000;2023-10-19T06:01:32;15.80;;;7.63;;
21084;SDS011;72320;50.082;20.000;2023-10-19T06:03:05;9.23;;;6.95;;
21084;SDS011;72320;50.082;20.000;2023-10-19T06:04:39;11.02;;;7.03;;
21084;SDS011;72320;50.082;20.000;2023-10-19T06:06:12;11.60;;;7.63;;
21084;SDS011;72320;50.082;20.000;2023-10-19T06:07:47;12.55;;;7.03;;
21084;SDS011;72320;50.082;20.000;2023-10-19T06:09:22;9.07;;;6.60;;
21084;SDS011;72320;50.082;20.000;2023-10-19T06:10:55;11.73;;;7.15;;
21084;SDS011;72320;50.082;20.000;2023-10-19T06:12:30;12.85;;;6.88;;
21084;SDS011;72320;50.082;20.000;2023-10-19T06:14:04;7.43;;;6.22;;
21084;SDS011;72320;50.082;20.000;2023-10-19T06:15:37;9.32;;;5.80;;
21084;SDS011;72320;50.082;20.000;2023-10-19T06:17:10;8.63;;;6.45;;
21084;SDS011;72320;50.082;20.000;2023-10-19T06:18:43;11.45;;;5.97;;
21084;SDS011;72320;50.082;20.000;2023-10-19T06:20:17;13.27;;;6.82;;
21084;SDS011;72320;50.082;20.000;2023-10-19T06:21:50;15.40;;;7.78;;
21084;SDS011;72320;50.082;20.000;2023-10-19T06:23:24;10.88;;;7.03;;
21084;SDS011;72320;50.082;20.000;2023-10-19T06:24:57;11.35;;;6.05;;
21084;SDS011;72320;50.082;20.000;2023-10-19T06:26:31;8.80;;;5.60;;
21084;SDS011;72320;50.082;20.000;2023-10-19T06:28:05;13.18;;;7.00;;
21084;SDS011;72320;50.082;20.000;2023-10-19T06:29:38;11.07;;;6.18;;
21084;SDS011;72320;50.082;20.000;2023-10-19T06:31:11;7.80;;;6.20;;
21084;SDS011;72320;50.082;20.000;2023-10-19T06:32:46;30.33;;;7.03;;
21084;SDS011;72320;50.082;20.000;2023-10-19T06:34:27;15.02;;;7.63;;
21084;SDS011;72320;50.082;20.000;2023-10-19T06:36:00;8.75;;;6.82;;
21084;SDS011;72320;50.082;20.000;2023-10-19T06:37:34;11.18;;;5.78;;
21084;SDS011;72320;50.082;20.000;2023-10-19T06:39:08;10.68;;;7.93;;
21084;SDS011;72320;50.082;20.000;2023-10-19T06:40:41;15.85;;;8.07;;
21084;SDS011;72320;50.082;20.000;2023-10-19T06:42:14;6.00;;;5.45;;
21084;SDS011;72320;50.082;20.000;2023-10-19T06:43:48;10.45;;;6.47;;
21084;SDS011;72320;50.082;20.000;2023-10-19T06:45:21;12.02;;;6.07;;
21084;SDS011;72320;50.082;20.000;2023-10-19T06:46:54;11.18;;;7.25;;
21084;SDS011;72320;50.082;20.000;2023-10-19T06:48:28;8.75;;;6.03;;
21084;SDS011;72320;50.082;20.000;2023-10-19T06:50:01;11.77;;;7.55;;
21084;SDS011;72320;50.082;20.000;2023-10-19T06:51:34;9.18;;;6.07;;
21084;SDS011;72320;50.082;20.000;2023-10-19T06:53:07;7.72;;;6.22;;
21084;SDS011;72320;50.082;20.000;2023-10-19T06:54:44;14.02;;;6.32;;
21084;SDS011;72320;50.082;20.000;2023-10-19T06:56:17;15.45;;;7.03;;
21084;SDS011;72320;50.082;20.000;2023-10-19T06:57:51;7.10;;;6.28;;
21084;SDS011;72320;50.082;20.000;2023-10-19T06:59:26;15.50;;;7.18;;
21084;SDS011;72320;50.082;20.000;2023-10-19T07:00:59;9.50;;;6.35;;
21084;SDS011;72320;50.082;20.000;2023-10-19T07:02:32;13.48;;;7.03;;
21084;SDS011;72320;50.082;20.000;2023-10-19T07:04:05;9.18;;;5.80;;
21084;SDS011;72320;50.082;20.000;2023-10-19T07:05:39;12.35;;;5.72;;
21084;SDS011;72320;50.082;20.000;2023-10-19T07:07:12;11.57;;;5.90;;
21084;SDS011;72320;50.082;20.000;2023-10-19T07:08:46;8.70;;;7.13;;
21084;SDS011;72320;50.082;20.000;2023-10-19T07:10:19;10.98;;;6.13;;
21084;SDS011;72320;50.082;20.000;2023-10-19T07:11:53;10.63;;;5.25;;
21084;SDS011;72320;50.082;20.000;2023-10-19T07:13:26;14.02;;;7.00;;
21084;SDS011;72320;50.082;20.000;2023-10-19T07:14:59;7.65;;;5.20;;
21084;SDS011;72320;50.082;20.000;2023-10-19T07:16:33;10.60;;;6.10;;
21084;SDS011;72320;50.082;20.000;2023-10-19T07:18:06;5.80;;;5.20;;
21084;SDS011;72320;50.082;20.000;2023-10-19T07:19:42;15.05;;;6.15;;
21084;SDS011;72320;50.082;20.000;2023-10-19T07:21:15;9.70;;;6.55;;
21084;SDS011;72320;50.082;20.000;2023-10-19T07:22:48;6.20;;;4.53;;
21084;SDS011;72320;50.082;20.000;2023-10-19T07:24:22;11.35;;;6.60;;
21084;SDS011;72320;50.082;20.000;2023-10-19T07:25:58;11.07;;;6.03;;
21084;SDS011;72320;50.082;20.000;2023-10-19T07:27:32;12.70;;;7.50;;
21084;SDS011;72320;50.082;20.000;2023-10-19T07:29:15;9.38;;;6.03;;
21084;SDS011;72320;50.082;20.000;2023-10-19T07:30:50;7.63;;;4.72;;
21084;SDS011;72320;50.082;20.000;2023-10-19T07:32:23;12.73;;;5.57;;
21084;SDS011;72320;50.082;20.000;2023-10-19T07:33:56;11.20;;;5.55;;
21084;SDS011;72320;50.082;20.000;2023-10-19T07:35:29;9.15;;;6.18;;
21084;SDS011;72320;50.082;20.000;2023-10-19T07:37:08;8.40;;;5.55;;
21084;SDS011;72320;50.082;20.000;2023-10-19T07:38:41;12.90;;;6.97;;
21084;SDS011;72320;50.082;20.000;2023-10-19T07:40:14;12.73;;;5.57;;
21084;SDS011;72320;50.082;20.000;2023-10-19T07:41:49;13.65;;;6.80;;
21084;SDS011;72320;50.082;20.000;2023-10-19T07:43:23;11.77;;;5.75;;
21084;SDS011;72320;50.082;20.000;2023-10-19T07:44:56;13.82;;;5.57;;
21084;SDS011;72320;50.082;20.000;2023-10-19T07:46:29;7.40;;;5.03;;
21084;SDS011;72320;50.082;20.000;2023-10-19T07:48:03;7.65;;;5.53;;
21084;SDS011;72320;50.082;20.000;2023-10-19T07:49:38;12.95;;;6.22;;
21084;SDS011;72320;50.082;20.000;2023-10-19T07:51:11;10.75;;;5.47;;
21084;SDS011;72320;50.082;20.000;2023-10-19T07:52:45;8.15;;;4.82;;
21084;SDS011;72320;50.082;20.000;2023-10-19T07:54:20;11.27;;;5.28;;
21084;SDS011;72320;50.082;20.000;2023-10-19T07:55:53;7.65;;;4.32;;
21084;SDS011;72320;50.082;20.000;2023-10-19T07:57:27;8.23;;;4.70;;
21084;SDS011;72320;50.082;20.000;2023-10-19T07:59:00;4.90;;;4.00;;
21084;SDS011;72320;50.082;20.000;2023-10-19T08:00:34;10.43;;;5.47;;
21084;SDS011;72320;50.082;20.000;2023-10-19T08:02:08;8.40;;;3.97;;
21084;SDS011;72320;50.082;20.000;2023-10-19T08:03:41;8.93;;;4.70;;
21084;SDS011;72320;50.082;20.000;2023-10-19T08:05:16;6.93;;;4.22;;
21084;SDS011;72320;50.082;20.000;2023-10-19T08:06:50;7.78;;;4.57;;
21084;SDS011;72320;50.082;20.000;2023-10-19T08:08:24;6.65;;;3.78;;
21084;SDS011;72320;50.082;20.000;2023-10-19T08:09:57;8.02;;;4.93;;
21084;SDS011;72320;50.082;20.000;2023-10-19T08:11:30;8.73;;;4.50;;
21084;SDS011;72320;50.082;20.000;2023-10-19T08:13:04;8.30;;;4.55;;
21084;SDS011;72320;50.082;20.000;2023-10-19T08:14:37;5.47;;;4.00;;
21084;SDS011;72320;50.082;20.000;2023-10-19T08:16:10;6.15;;;4.13;;
21084;SDS011;72320;50.082;20.000;2023-10-19T08:17:45;6.53;;;4.30;;
21084;SDS011;72320;50.082;20.000;2023-10-19T08:19:21;7.35;;;5.50;;
21084;SDS011;72320;50.082;20.000;2023-10-19T08:20:54;18.92;;;6.40;;
21084;SDS011;72320;50.082;20.000;2023-10-19T08:22:29;9.20;;;3.90;;
21084;SDS011;72320;50.082;20.000;2023-10-19T08:24:03;6.63;;;5.10;;
21084;SDS011;72320;50.082;20.000;2023-10-19T08:25:37;6.43;;;4.53;;
21084;SDS011;72320;50.082;20.000;2023-10-19T08:27:27;7.97;;;4.55;;
21084;SDS011;72320;50.082;20.000;2023-10-19T08:29:00;11.48;;;6.28;;
21084;SDS011;72320;50.082;20.000;2023-10-19T08:30:34;17.40;;;6.35;;
21084;SDS011;72320;50.082;20.000;2023-10-19T08:32:08;6.47;;;4.15;;
21084;SDS011;72320;50.082;20.000;2023-10-19T08:33:41;8.75;;;4.85;;
21084;SDS011;72320;50.082;20.000;2023-10-19T08:35:16;11.13;;;4.45;;
21084;SDS011;72320;50.082;20.000;2023-10-19T08:36:52;7.35;;;4.93;;
21084;SDS011;72320;50.082;20.000;2023-10-19T08:38:28;9.38;;;5.03;;
21084;SDS011;72320;50.082;20.000;2023-10-19T08:40:01;7.57;;;3.97;;
21084;SDS011;72320;50.082;20.000;2023-10-19T08:41:35;8.60;;;4.93;;
21084;SDS011;72320;50.082;20.000;2023-10-19T08:43:08;12.98;;;5.25;;
21084;SDS011;72320;50.082;20.000;2023-10-19T08:44:41;17.15;;;4.93;;
21084;SDS011;72320;50.082;20.000;2023-10-19T08:46:15;10.88;;;5.30;;
21084;SDS011;72320;50.082;20.000;2023-10-19T08:49:33;9.68;;;5.75;;
21084;SDS011;72320;50.082;20.000;2023-10-19T08:51:10;13.57;;;5.35;;
21084;SDS011;72320;50.082;20.000;2023-10-19T08:52:43;7.57;;;5.13;;
21084;SDS011;72320;50.082;20.000;2023-10-19T08:54:17;5.40;;;4.88;;
21084;SDS011;72320;50.082;20.000;2023-10-19T08:55:51;6.80;;;4.47;;
21084;SDS011;72320;50.082;20.000;2023-10-19T08:57:25;8.20;;;4.95;;
21084;SDS011;72320;50.082;20.000;2023-10-19T08:58:59;14.13;;;6.05;;
21084;SDS011;72320;50.082;20.000;2023-10-19T09:00:46;12.60;;;5.35;;
21084;SDS011;72320;50.082;20.000;2023-10-19T09:02:24;10.65;;;5.95;;
21084;SDS011;72320;50.082;20.000;2023-10-19T09:03:58;14.75;;;6.32;;
21084;SDS011;72320;50.082;20.000;2023-10-19T09:05:31;14.57;;;5.55;;
21084;SDS011;72320;50.082;20.000;2023-10-19T09:07:05;6.47;;;4.97;;
21084;SDS011;72320;50.082;20.000;2023-10-19T09:08:40;8.57;;;5.18;;
21084;SDS011;72320;50.082;20.000;2023-10-19T09:10:16;6.35;;;4.68;;
21084;SDS011;72320;50.082;20.000;2023-10-19T09:11:50;9.18;;;4.93;;
21084;SDS011;72320;50.082;20.000;2023-10-19T09:13:24;12.45;;;6.07;;